This demonstration page uses our WeatherBlox Daily Observations layout. Learn more.

41.55636, -103.73856

Hourly Observations for January 28, 2019

Temp ( °F °C ) Dew Point ( °F °C ) Humidity (%) Winds ( mph kmh ) Pressure ( in mb ) Visibility ( mi km ) Precip ( " mm )
12:53 am 00:53 Clear 32 0 24 -4.4 73 73 NW 26 43 29.94 1014 10 16.09344 0 0
1:34 am 01:34 Mostly Cloudy 31 -0.6 23 -5 72 72 NNW 26 43 30.12 1020 10 16.09344 0 0
1:53 am 01:53 Cloudy 31 -0.6 22 -5.6 69 69 NNW 28 44 30 1016 10 16.09344 0 0
2:09 am 02:09 Mostly Cloudy 30 -1.1 20 -6.7 66 66 NNW 23 37 30.12 1020 10 16.09344 0 0
2:53 am 02:53 Cloudy 30 -1.1 21 -6.1 69 69 NNW 25 41 30.03 1017 10 16.09344 0 0
3:17 am 03:17 Cloudy 30 -1.1 20 -6.7 66 66 NNW 23 37 30.15 1021 10 16.09344 0 0
3:53 am 03:53 Cloudy 30 -1.1 20 -6.7 66 66 NW 20 31 30.06 1018 10 16.09344 0 0
4:53 am 04:53 Cloudy 29 -1.7 18 -7.8 63 63 NNW 25 41 30.06 1018 10 16.09344 0 0
5:53 am 05:53 Mostly Cloudy 27 -2.8 18 -7.8 69 69 NNW 25 41 30.15 1021 10 16.09344 0.001 0.001
6:53 am 06:53 Mostly Clear 24 -4.4 15 -9.4 68 68 NW 22 35 30.21 1023 10 16.09344 0 0
7:53 am 07:53 Cloudy 24 -4.4 13 -10.6 62 62 NW 22 35 30.27 1025 10 16.09344 0 0
8:53 am 08:53 Mostly Cloudy 25 -3.9 13 -10.6 60 60 NW 23 37 30.3 1026 10 16.09344 0 0
9:53 am 09:53 Mostly Cloudy 29 -1.7 14 -10 54 54 NW 32 52 30.27 1025 10 16.09344 0 0
10:53 am 10:53 Mostly Sunny 29 -1.7 10 -12.2 45 45 NW 33 54 30.3 1026 10 16.09344 0.001 0.001
11:53 am 11:53 Sunny 29 -1.7 10 -12.2 45 45 NW 35 56 30.27 1025 10 16.09344 0 0
12:53 pm 12:53 Mostly Sunny 30 -1.1 9 -12.8 41 41 NW 32 52 30.27 1025 10 16.09344 0 0
1:53 pm 13:53 Mostly Cloudy 31 -0.6 8 -13.3 38 38 NW 30 48 30.27 1025 10 16.09344 0 0
2:53 pm 14:53 Mostly Cloudy 29 -1.7 7 -13.9 39 39 NNW 26 43 30.27 1025 10 16.09344 0 0
3:53 pm 15:53 Sunny 27 -2.8 8 -13.3 45 45 NNW 24 39 30.27 1025 10 16.09344 0 0
4:53 pm 16:53 Mostly Sunny 25 -3.9 8 -13.3 48 48 NW 23 37 30.3 1026 10 16.09344 0 0
5:53 pm 17:53 Clear 23 -5 8 -13.3 53 53 NW 10 17 30.3 1026 10 16.09344 0 0
6:53 pm 18:53 Clear 19 -7.2 9 -12.8 65 65 NNW 9 15 30.3 1026 10 16.09344 0 0
7:53 pm 19:53 Clear 16 -8.9 9 -12.8 74 74 NW 5 7 30.33 1027 10 16.09344 0 0
8:53 pm 20:53 Clear 16 -8.9 9 -12.8 74 74 NW 5 7 30.3 1026 10 16.09344 0 0
9:53 pm 21:53 Clear 14 -10 10 -12.2 84 84 W 7 11 30.3 1026 10 16.09344 0 0
10:53 pm 22:53 Clear 11 -11.7 8 -13.3 88 88 WNW 6 9 30.3 1026 10 16.09344 0 0
11:53 pm 23:53 Clear 14 -10 10 -12.2 84 84 WNW 8 13 30.27 1025 10 16.09344 0 0

Powered by AerisWeather